Terminal Aerodrome Forecast
Issued by NWS

Home | Current Version | Previous Version | Text Only | Print | Product List | Glossary On
Versions: 1 2 3 4 5 6 7 8 9 10 11 12 13 14 15 16 17 18 19 20 21 22 23 24 25 26 27 28 29 30 31 32 33 34 35 36 37 38 39 40 41 42 43 44 45 46 47 48 49
000
FTUS42 KMFL 020534
TAFMIA
TAF
KMIA 020534Z 0206/0306 VRB03KT P6SM FEW025 SCT300
     FM021400 05006KT P6SM VCSH SCT030
     FM021800 10008KT P6SM VCTS SCT030CB SCT050 BKN250
     FM030000 VRB04KT P6SM FEW030=

USA.gov is the U.S. government's official web portal to all federal, state and local government web resources and services.